Stations météo

réclame
Mon MeteoGroup
Polientes, Espagne (8033): Température de l'air & dewpoint: 11.01.2020 23:00:00 - 17.01.2020 23:00:00 (CET)Polientes, Espagne (8033): Vitesse du vent & gusts: 11.01.2020 23:00:00 - 17.01.2020 23:00:00 (CET)Polientes, Espagne (8033): Direction du vent: 11.01.2020 23:00:00 - 17.01.2020 23:00:00 (CET)Polientes, Espagne (8033): Quantités de précipitations: 11.01.2020 23:00:00 - 17.01.2020 23:00:00 (CET)
Date & Time tt [°C] td [°C] ff [km/h] ff [knt] fx [km/h] fx [knt] dd rr [mm]
17.01.2020 23:00:00 0,8 -0,5 0 0 8 5 SSE 0,0
17.01.2020 22:00:00 1,4 -0,5 4 2 9 5 NNW 0,0
17.01.2020 21:00:00 2,2 0,2 5 3 10 5 NNW 0,0
17.01.2020 20:00:00 3,4 0,4 1 1 8 4 NE 0,0
17.01.2020 19:00:00 5,0 0,9 3 2 15 8 ENE -
17.01.2020 18:00:00 6,4 0,9 5 3 21 11 NE 0,0
17.01.2020 17:00:00 7,2 1,1 7 4 18 10 NE 0,0
17.01.2020 16:00:00 8,2 1,3 12 6 18 10 NE 0,0
17.01.2020 15:00:00 8,8 1,9 8 4 18 10 NE 0,0
17.01.2020 14:00:00 8,0 1,9 10 5 24 13 NE 0,0
17.01.2020 13:00:00 9,5 0,2 12 7 23 13 SW -
17.01.2020 12:00:00 8,5 0,4 12 7 24 13 WSW 0,0
17.01.2020 11:00:00 7,7 1,1 6 4 16 9 W 0,0
17.01.2020 10:00:00 6,7 1,3 11 6 26 14 SW 0,0
17.01.2020 09:00:00 5,9 0,9 14 7 26 14 SW 0,0
17.01.2020 08:00:00 5,7 1,3 6 3 23 12 SSW 0,0
17.01.2020 07:00:00 7,1 2,9 12 6 26 14 SW -
17.01.2020 06:00:00 7,3 3,0 12 7 31 17 SW 0,0
17.01.2020 05:00:00 7,6 4,1 19 10 36 19 SW 0,0
17.01.2020 04:00:00 7,9 4,1 15 8 31 17 SW 0,0
17.01.2020 03:00:00 8,4 3,8 13 7 37 20 SSW 0,0
17.01.2020 02:00:00 8,5 3,8 21 11 43 23 SW 0,0
17.01.2020 01:00:00 8,6 3,4 16 9 37 20 SW -
17.01.2020 00:00:00 8,5 3,6 21 11 51 28 SW 0,0
16.01.2020 23:00:00 8,4 3,2 26 14 50 27 SSW 0,0
16.01.2020 22:00:00 8,4 2,5 26 14 56 30 SSW 0,0
16.01.2020 21:00:00 10,2 -0,3 21 12 57 31 SW 0,0
16.01.2020 20:00:00 10,1 -2,0 23 12 58 31 SW 0,0
16.01.2020 19:00:00 10,5 -2,5 23 12 46 25 SW -
16.01.2020 18:00:00 10,9 -2,0 22 12 54 29 SSW 0,0
16.01.2020 17:00:00 12,2 -1,0 21 11 56 30 SW 0,0
16.01.2020 16:00:00 13,5 0,2 28 15 57 31 SW 0,0
16.01.2020 15:00:00 13,1 2,1 25 13 52 28 SW 0,0
16.01.2020 14:00:00 12,4 4,6 22 12 60 32 SSW 0,0
16.01.2020 13:00:00 11,5 5,6 22 12 41 22 SSW -
16.01.2020 12:00:00 10,9 5,8 20 11 38 21 SW 0,0
16.01.2020 11:00:00 10,5 6,1 17 9 36 19 SW 0,0
16.01.2020 10:00:00 9,1 5,6 16 9 44 24 SW 0,0
16.01.2020 09:00:00 8,8 5,5 22 12 39 21 SW 0,0
16.01.2020 08:00:00 8,7 5,3 20 11 35 19 SW 0,0
16.01.2020 07:00:00 9,0 5,3 17 9 33 18 SW -
16.01.2020 06:00:00 9,3 5,6 15 8 27 15 WSW 0,0
16.01.2020 05:00:00 9,6 5,9 16 9 34 18 SW 0,0
16.01.2020 04:00:00 9,2 6,2 12 6 28 15 SW 0,0
16.01.2020 03:00:00 8,9 6,4 16 8 37 20 SW 0,0
16.01.2020 02:00:00 8,9 6,2 17 9 34 18 SSW 0,0
16.01.2020 01:00:00 8,7 5,9 16 9 34 19 SW -
16.01.2020 00:00:00 9,1 5,9 16 9 40 22 SW 0,0
15.01.2020 23:00:00 9,2 5,9 19 10 36 20 SW 0,0
15.01.2020 22:00:00 8,9 5,5 15 8 33 18 WSW 0,0
15.01.2020 21:00:00 8,7 5,0 17 9 28 15 WSW 0,0
15.01.2020 20:00:00 8,7 4,6 10 5 19 10 SW 0,0
15.01.2020 19:00:00 9,0 4,3 11 6 19 10 SSW -
15.01.2020 18:00:00 9,4 4,1 8 5 22 12 SSW 0,0
15.01.2020 17:00:00 9,7 4,5 13 7 35 19 SSW 0,0
15.01.2020 16:00:00 10,3 3,9 17 9 38 20 SSW 0,0
15.01.2020 15:00:00 10,4 3,4 15 8 37 20 SW 0,0
15.01.2020 14:00:00 9,9 3,4 21 11 49 26 SW 0,0
15.01.2020 13:00:00 10,4 4,3 13 7 33 18 SW -
15.01.2020 12:00:00 8,2 3,9 14 8 33 18 SW 0,0
15.01.2020 11:00:00 8,1 3,9 17 9 40 22 SSW 0,0
15.01.2020 10:00:00 8,2 3,2 16 9 39 21 SW 0,0
15.01.2020 09:00:00 7,8 3,2 23 13 58 31 SW 0,0
15.01.2020 08:00:00 8,0 2,9 26 14 56 30 SSW 0,0
15.01.2020 07:00:00 7,9 2,7 27 15 54 29 SSW -
15.01.2020 06:00:00 8,0 3,2 24 13 53 28 SSW 0,0
15.01.2020 05:00:00 8,1 3,6 22 12 44 24 SW 0,0
15.01.2020 04:00:00 8,0 3,6 24 13 52 28 SSW 0,0
15.01.2020 03:00:00 7,4 4,5 22 12 46 25 SSW 0,0
15.01.2020 02:00:00 7,3 4,3 25 13 49 26 SSW 0,0
15.01.2020 01:00:00 7,3 3,6 21 12 52 28 SW -
15.01.2020 00:00:00 7,1 3,0 21 11 47 26 SSW 0,0
14.01.2020 23:00:00 7,2 2,3 21 11 44 24 SW 0,0
14.01.2020 22:00:00 7,6 1,9 23 12 47 25 SW 0,0
14.01.2020 21:00:00 8,1 1,9 23 13 46 25 SW 0,0
14.01.2020 20:00:00 8,5 1,7 27 15 56 31 SW 0,0
14.01.2020 19:00:00 8,4 0,9 28 15 49 26 SW -
14.01.2020 18:00:00 8,2 1,5 24 13 50 27 SW 0,0
14.01.2020 17:00:00 8,2 2,1 24 13 50 27 SSW 0,0
14.01.2020 16:00:00 8,2 1,3 29 16 55 30 SW 0,0
14.01.2020 15:00:00 9,1 1,3 32 17 55 30 SSW 0,0
14.01.2020 14:00:00 7,9 1,3 27 15 46 25 SSW 0,0
14.01.2020 13:00:00 6,7 1,3 19 11 37 20 SSW -
14.01.2020 12:00:00 5,9 1,5 19 10 34 19 SSW 0,0
14.01.2020 11:00:00 4,7 1,3 19 10 40 22 SSW 0,0
14.01.2020 10:00:00 4,1 1,5 13 7 33 18 SW 0,0
14.01.2020 09:00:00 3,9 1,5 22 12 35 19 SW 0,0
14.01.2020 08:00:00 4,3 1,7 20 11 36 19 SW 0,0
14.01.2020 07:00:00 4,2 1,7 20 11 34 19 SW -
14.01.2020 06:00:00 3,9 1,3 18 10 37 20 SW 0,0
14.01.2020 05:00:00 3,8 1,3 21 11 33 18 SW 0,0
14.01.2020 04:00:00 3,3 0,6 19 10 35 19 SSW 0,0
14.01.2020 03:00:00 3,3 0,4 16 9 36 20 SSW 0,0
14.01.2020 02:00:00 3,5 0,2 19 10 31 17 SW 0,0
14.01.2020 01:00:00 3,0 -0,3 16 9 29 16 SW -
14.01.2020 00:00:00 2,7 -0,5 4 2 18 10 WSW 0,0
13.01.2020 23:00:00 2,3 -1,0 9 5 28 15 W 0,0
13.01.2020 22:00:00 1,6 -1,4 14 8 35 19 WSW 0,0
13.01.2020 21:00:00 2,0 -1,7 12 7 34 19 SW 0,0
13.01.2020 20:00:00 1,2 -2,5 22 12 36 20 SW 0,0
13.01.2020 19:00:00 1,3 -2,7 21 11 32 18 SW -
13.01.2020 18:00:00 1,6 -3,0 13 7 28 15 SSW 0,0
13.01.2020 17:00:00 4,1 -3,6 7 4 27 15 S 0,0
13.01.2020 16:00:00 5,9 -4,8 15 8 28 15 WSW 0,0
13.01.2020 15:00:00 6,6 -4,5 6 4 28 15 SSE 0,0
13.01.2020 14:00:00 6,4 -7,1 16 8 34 18 SSW 0,0
13.01.2020 13:00:00 4,1 -0,3 9 5 14 8 SW -
13.01.2020 12:00:00 1,9 0,2 6 3 11 6 SSW 0,0
13.01.2020 11:00:00 -0,9 -2,0 3 2 7 4 SW 0,0
13.01.2020 10:00:00 -2,9 -3,9 4 2 7 4 WSW 0,0
13.01.2020 09:00:00 -4,7 -5,7 0 0 4 2 WSW 0,0
13.01.2020 08:00:00 -4,9 -5,7 0 0 0 0 N 0,0
13.01.2020 07:00:00 -5,1 -6,0 0 0 0 0 N -
13.01.2020 06:00:00 -5,0 -5,7 0 0 0 0 N 0,0
13.01.2020 05:00:00 -4,8 -5,4 0 0 5 3 N 0,0
13.01.2020 04:00:00 -4,4 -5,1 0 0 0 0 N 0,0
13.01.2020 03:00:00 -3,7 -4,5 0 0 0 0 N 0,0
13.01.2020 02:00:00 -3,0 -3,6 0 0 0 0 N 0,0
13.01.2020 01:00:00 -2,4 -3,0 0 0 0 0 N -
13.01.2020 00:00:00 -2,1 -3,0 0 0 5 3 ENE 0,0
12.01.2020 23:00:00 -2,2 -3,3 1 0 3 2 WSW 0,0
12.01.2020 22:00:00 -1,5 -2,7 0 0 3 1 N 0,0
12.01.2020 21:00:00 -1,0 -2,2 0 0 4 2 W 0,0
12.01.2020 20:00:00 0,0 -2,0 0 0 3 2 N 0,0
12.01.2020 19:00:00 1,7 -0,7 0 0 10 5 N -
12.01.2020 18:00:00 3,3 -0,3 6 3 9 5 NNW 0,0
12.01.2020 17:00:00 8,8 0,2 0 0 5 3 E 0,0
12.01.2020 16:00:00 6,7 -0,5 1 1 8 5 E 0,0
12.01.2020 15:00:00 4,4 0,2 4 2 9 5 ENE 0,0
12.01.2020 14:00:00 1,6 -0,5 4 2 8 5 NE 0,0
12.01.2020 13:00:00 0,4 -0,3 3 2 7 4 SSE -
12.01.2020 12:00:00 -1,2 -2,0 3 2 9 5 W 0,0
12.01.2020 11:00:00 -1,9 -2,5 4 2 10 6 WSW 0,0
12.01.2020 10:00:00 -2,1 -2,7 5 3 9 5 W 0,0
12.01.2020 09:00:00 -2,1 -2,7 4 2 8 4 W 0,0
12.01.2020 08:00:00 -2,2 -3,0 0 0 0 0 N 0,0
12.01.2020 07:00:00 -2,8 -3,3 0 0 0 0 N -
12.01.2020 06:00:00 -3,7 -4,5 0 0 0 0 N 0,0
12.01.2020 05:00:00 -3,6 -4,2 1 1 6 3 SW 0,0
12.01.2020 04:00:00 -2,7 -3,3 2 1 4 2 SSW 0,0
12.01.2020 03:00:00 -2,8 -3,6 0 0 7 4 N 0,0
12.01.2020 02:00:00 -3,7 -4,5 1 1 6 3 NNE 0,0
12.01.2020 01:00:00 -3,2 -4,2 0 0 0 0 N -
12.01.2020 00:00:00 -2,7 -3,6 0 0 0 0 N 0,0
11.01.2020 23:00:00 -2,0 -3,0 0 0 4 2 N 0,0

tt = Température de l'air
td = dewpoint
ff = Vitesse du vent
fx = gusts
dd = Direction du vent
rr = Quantités de précipitations

stations d'obs. à proximité